Time;durP1;ratioP1;P1;durP2;ratioP2;P2;SDS_P1;SDS_P2;PMS_P1;PMS_P2;Temp;Humidity;BMP_temperature;BMP_pressure;BME280_temperature;BME280_humidity;BME280_pressure;Samples;Min_cycle;Max_cycle;Signal;HPM_P1;HPM_P2
2022/05/24 00:00:13;;;;;;;14.27;6.82;;;;;;;;;;143730;601;45019;-58
2022/05/24 00:02:40;;;;;;;12.20;7.20;;;;;;;;;;143727;613;46023;-57
2022/05/24 00:05:09;;;;;;;11.43;6.60;;;;;;;;;;143725;761;47018;-57
2022/05/24 00:07:37;;;;;;;12.88;6.40;;;;;;;;;;143724;811;47012;-57
2022/05/24 00:10:06;;;;;;;13.50;7.18;;;;;;;;;;143727;605;45910;-57
2022/05/24 00:12:33;;;;;;;12.43;6.68;;;;;;;;;;143729;571;46012;-57
2022/05/24 00:18:12;;;;;;;12.23;6.53;;;;;;;;;;143728;590;46012;-58
2022/05/24 00:20:45;;;;;;;10.80;6.40;;;;;;;;;;143730;787;45020;-58
2022/05/24 00:23:12;;;;;;;10.75;6.50;;;;;;;;;;143730;574;46022;-57
2022/05/24 00:25:43;;;;;;;14.20;7.07;;;;;;;;;;143726;591;47018;-57
2022/05/24 00:28:12;;;;;;;10.02;6.15;;;;;;;;;;143725;582;47012;-57
2022/05/24 00:30:40;;;;;;;10.52;6.35;;;;;;;;;;143727;772;45019;-57
2022/05/24 00:33:07;;;;;;;13.57;6.70;;;;;;;;;;143728;569;47012;-57
2022/05/24 00:35:35;;;;;;;13.05;7.03;;;;;;;;;;143727;744;47018;-57
2022/05/24 00:38:02;;;;;;;10.15;6.90;;;;;;;;;;143724;658;47012;-57
2022/05/24 00:41:05;;;;;;;10.05;7.12;;;;;;;;;;143728;609;45018;-57
2022/05/24 00:43:47;;;;;;;10.27;6.45;;;;;;;;;;143729;585;46014;-57
2022/05/24 00:46:24;;;;;;;10.10;6.57;;;;;;;;;;143724;605;47019;-57
2022/05/24 00:49:07;;;;;;;10.85;6.20;;;;;;;;;;143724;629;47012;-58
2022/05/24 00:51:39;;;;;;;13.18;6.70;;;;;;;;;;143730;573;45018;-57
2022/05/24 00:54:07;;;;;;;12.20;7.05;;;;;;;;;;143729;587;46023;-57
2022/05/24 00:57:34;;;;;;;15.20;8.00;;;;;;;;;;143725;594;47020;-57
2022/05/24 01:00:15;;;;;;;20.42;10.43;;;;;;;;;;143728;605;46012;-58
2022/05/24 01:02:43;;;;;;;20.62;12.20;;;;;;;;;;143728;569;45018;-57
2022/05/24 01:05:13;;;;;;;25.17;11.45;;;;;;;;;;143728;605;46022;-57
2022/05/24 01:07:40;;;;;;;26.45;11.60;;;;;;;;;;143723;564;47019;-57
2022/05/24 01:10:11;;;;;;;26.58;13.00;;;;;;;;;;143724;564;47012;-58
2022/05/24 01:12:43;;;;;;;21.80;10.75;;;;;;;;;;143728;571;45018;-58
2022/05/24 01:15:11;;;;;;;24.63;11.95;;;;;;;;;;143730;574;46013;-58
2022/05/24 01:17:39;;;;;;;17.30;8.55;;;;;;;;;;143725;718;47018;-57
2022/05/24 01:20:08;;;;;;;28.48;11.90;;;;;;;;;;143726;590;46012;-57
2022/05/24 01:23:05;;;;;;;26.73;11.77;;;;;;;;;;143727;572;45914;-58
2022/05/24 01:25:53;;;;;;;16.62;9.10;;;;;;;;;;143729;634;46014;-58
2022/05/24 01:28:38;;;;;;;18.75;9.90;;;;;;;;;;143725;569;47018;-57
2022/05/24 01:31:06;;;;;;;18.00;10.15;;;;;;;;;;143726;599;46029;-57
2022/05/24 01:36:20;;;;;;;21.50;11.27;;;;;;;;;;143728;777;47013;-57
2022/05/24 01:38:52;;;;;;;26.35;11.23;;;;;;;;;;143726;623;47018;-57
2022/05/24 01:41:30;;;;;;;35.25;15.13;;;;;;;;;;143725;836;47012;-57
2022/05/24 01:43:58;;;;;;;18.08;9.57;;;;;;;;;;143728;687;45019;-57
2022/05/24 01:46:34;;;;;;;20.92;9.88;;;;;;;;;;143730;789;46012;-57
2022/05/24 01:49:06;;;;;;;14.23;7.95;;;;;;;;;;143726;698;47018;-57
2022/05/24 01:51:58;;;;;;;14.02;8.70;;;;;;;;;;143725;570;47012;-58
2022/05/24 01:54:24;;;;;;;14.27;7.47;;;;;;;;;;143727;564;45019;-58
2022/05/24 01:56:58;;;;;;;14.48;8.57;;;;;;;;;;143730;587;46022;-57
2022/05/24 01:59:26;;;;;;;15.70;8.38;;;;;;;;;;143724;716;47020;-57
2022/05/24 02:01:57;;;;;;;15.25;8.68;;;;;;;;;;143724;844;47012;-57
2022/05/24 02:04:26;;;;;;;19.90;8.32;;;;;;;;;;143728;598;45018;-57
2022/05/24 02:07:28;;;;;;;16.75;10.15;;;;;;;;;;143729;566;46022;-58
2022/05/24 02:09:57;;;;;;;18.75;11.35;;;;;;;;;;143725;569;47022;-58
2022/05/24 02:12:45;;;;;;;21.73;12.00;;;;;;;;;;143722;847;47012;-57
2022/05/24 02:15:19;;;;;;;24.98;12.43;;;;;;;;;;143727;629;45019;-57
2022/05/24 02:18:08;;;;;;;20.75;10.93;;;;;;;;;;143728;627;46022;-57
2022/05/24 02:20:40;;;;;;;21.92;11.43;;;;;;;;;;143724;591;47020;-58
2022/05/24 02:23:08;;;;;;;21.00;11.43;;;;;;;;;;143726;613;46012;-57
2022/05/24 02:25:53;;;;;;;23.85;13.02;;;;;;;;;;143728;565;45018;-57
2022/05/24 02:28:24;;;;;;;32.58;13.93;;;;;;;;;;143729;707;46022;-57
2022/05/24 02:30:55;;;;;;;24.25;11.12;;;;;;;;;;143726;791;47018;-58
2022/05/24 02:33:23;;;;;;;16.75;9.57;;;;;;;;;;143725;791;47012;-58
2022/05/24 02:35:51;;;;;;;16.62;8.65;;;;;;;;;;143729;763;45018;-57
2022/05/24 02:38:19;;;;;;;19.05;9.95;;;;;;;;;;143730;787;46012;-57
2022/05/24 02:43:30;;;;;;;17.15;9.10;;;;;;;;;;143725;594;47010;-57
2022/05/24 02:45:57;;;;;;;16.70;10.27;;;;;;;;;;143729;736;45019;-57
2022/05/24 02:48:25;;;;;;;16.98;10.07;;;;;;;;;;143729;577;46012;-57
2022/05/24 02:50:52;;;;;;;14.23;9.40;;;;;;;;;;143725;805;47020;-57
2022/05/24 02:53:19;;;;;;;17.02;10.10;;;;;;;;;;143724;756;47012;-57
2022/05/24 02:55:46;;;;;;;16.92;10.45;;;;;;;;;;143729;668;45018;-57
2022/05/24 02:58:13;;;;;;;27.55;13.70;;;;;;;;;;143730;594;46022;-58
2022/05/24 03:00:42;;;;;;;17.98;10.48;;;;;;;;;;143726;773;47018;-57
2022/05/24 03:03:09;;;;;;;19.70;11.10;;;;;;;;;;143725;621;47012;-57
2022/05/24 03:05:36;;;;;;;16.95;10.95;;;;;;;;;;143727;715;45018;-57
2022/05/24 03:10:48;;;;;;;20.20;11.65;;;;;;;;;;143727;564;46012;-57
2022/05/24 03:16:11;;;;;;;15.48;12.10;;;;;;;;;;143728;579;45021;-58
2022/05/24 03:18:39;;;;;;;17.83;12.32;;;;;;;;;;143728;800;46012;-57
2022/05/24 03:21:07;;;;;;;23.65;14.45;;;;;;;;;;143727;567;47019;-57
2022/05/24 03:23:34;;;;;;;19.12;12.65;;;;;;;;;;143726;580;45917;-57
2022/05/24 03:26:01;;;;;;;20.77;12.07;;;;;;;;;;143728;627;45018;-57
2022/05/24 03:28:28;;;;;;;19.83;14.00;;;;;;;;;;143729;639;46015;-57
2022/05/24 03:30:56;;;;;;;28.05;15.13;;;;;;;;;;143725;569;47021;-57
2022/05/24 03:33:24;;;;;;;19.90;12.82;;;;;;;;;;143725;638;47012;-57
2022/05/24 03:35:51;;;;;;;28.40;20.17;;;;;;;;;;143728;653;46014;-57
2022/05/24 03:38:18;;;;;;;24.08;17.02;;;;;;;;;;143729;566;46023;-56
2022/05/24 03:40:45;;;;;;;32.50;21.30;;;;;;;;;;143725;641;47020;-57
2022/05/24 03:43:16;;;;;;;33.25;21.90;;;;;;;;;;143724;577;47013;-57
2022/05/24 03:45:43;;;;;;;27.75;18.50;;;;;;;;;;143727;603;45019;-57
2022/05/24 03:48:10;;;;;;;19.27;11.48;;;;;;;;;;143730;586;46012;-57
2022/05/24 03:50:37;;;;;;;17.25;11.80;;;;;;;;;;143725;586;47019;-57
2022/05/24 03:53:04;;;;;;;26.87;13.62;;;;;;;;;;143724;565;47012;-56
2022/05/24 03:55:32;;;;;;;21.50;11.82;;;;;;;;;;143727;596;45018;-57
2022/05/24 03:58:01;;;;;;;17.80;8.45;;;;;;;;;;143731;565;46022;-56
2022/05/24 04:00:40;;;;;;;11.80;7.70;;;;;;;;;;143725;717;47018;-56
2022/05/24 04:03:08;;;;;;;15.30;8.20;;;;;;;;;;143723;569;47010;-56
2022/05/24 04:05:36;;;;;;;12.63;8.27;;;;;;;;;;143728;631;46010;-57
2022/05/24 04:08:04;;;;;;;19.83;9.02;;;;;;;;;;143729;601;47012;-56
2022/05/24 04:10:32;;;;;;;18.27;8.85;;;;;;;;;;143726;738;47014;-57
2022/05/24 04:13:00;;;;;;;14.98;9.35;;;;;;;;;;143725;840;47011;-57
2022/05/24 04:15:28;;;;;;;14.48;8.20;;;;;;;;;;143731;564;45019;-56
2022/05/24 04:17:56;;;;;;;12.23;8.35;;;;;;;;;;143729;763;46022;-57
2022/05/24 04:20:25;;;;;;;15.02;7.37;;;;;;;;;;143725;605;47020;-57
2022/05/24 04:22:54;;;;;;;15.82;8.63;;;;;;;;;;143727;631;46010;-57
2022/05/24 04:25:21;;;;;;;16.42;10.13;;;;;;;;;;143729;611;45018;-56
2022/05/24 04:27:48;;;;;;;23.92;10.50;;;;;;;;;;143730;569;46022;-57
2022/05/24 04:30:16;;;;;;;18.30;11.05;;;;;;;;;;143725;593;47021;-56
2022/05/24 04:32:43;;;;;;;23.17;10.57;;;;;;;;;;143724;593;47010;-57
2022/05/24 04:35:10;;;;;;;20.35;10.63;;;;;;;;;;143730;607;45019;-56
2022/05/24 04:37:37;;;;;;;19.48;11.27;;;;;;;;;;143731;590;46012;-56
2022/05/24 04:40:05;;;;;;;14.87;9.70;;;;;;;;;;143725;575;47020;-57
2022/05/24 04:42:32;;;;;;;17.27;9.23;;;;;;;;;;143727;570;46010;-57
2022/05/24 04:45:01;;;;;;;13.95;9.50;;;;;;;;;;143726;624;45910;-57
2022/05/24 04:47:30;;;;;;;15.00;9.25;;;;;;;;;;143729;589;46022;-57
2022/05/24 04:50:00;;;;;;;14.55;8.65;;;;;;;;;;143725;614;47019;-57
2022/05/24 04:52:33;;;;;;;20.95;8.90;;;;;;;;;;143724;570;47010;-57
2022/05/24 04:55:01;;;;;;;16.15;8.48;;;;;;;;;;143729;617;45018;-57
2022/05/24 04:57:28;;;;;;;18.40;8.52;;;;;;;;;;143730;586;46022;-57
2022/05/24 04:59:56;;;;;;;13.27;7.32;;;;;;;;;;143727;596;47021;-57
2022/05/24 05:02:23;;;;;;;16.05;8.00;;;;;;;;;;143728;594;46010;-57
2022/05/24 05:04:50;;;;;;;20.48;8.52;;;;;;;;;;143730;566;45018;-57
2022/05/24 05:07:19;;;;;;;18.33;8.00;;;;;;;;;;143730;593;46023;-57
2022/05/24 05:09:49;;;;;;;15.27;7.37;;;;;;;;;;143726;606;47020;-57
2022/05/24 05:12:17;;;;;;;14.98;7.43;;;;;;;;;;143725;570;47010;-58
2022/05/24 05:14:44;;;;;;;14.98;7.35;;;;;;;;;;143727;606;46019;-57
2022/05/24 05:17:12;;;;;;;16.25;7.93;;;;;;;;;;143730;613;46022;-57
2022/05/24 05:19:39;;;;;;;18.50;8.20;;;;;;;;;;143727;593;47019;-57
2022/05/24 05:22:07;;;;;;;18.77;8.80;;;;;;;;;;143725;578;47010;-57
2022/05/24 05:24:34;;;;;;;22.37;9.93;;;;;;;;;;143729;647;45018;-57
2022/05/24 05:27:01;;;;;;;19.10;8.20;;;;;;;;;;143730;692;46013;-57
2022/05/24 05:32:22;;;;;;;;;;;;;;;;;;143730;980;47022;-57
2022/05/24 05:34:49;;;;;;;13.50;8.60;;;;;;;;;;143734;572;45019;-57
2022/05/24 05:37:16;;;;;;;15.40;7.53;;;;;;;;;;143730;590;46010;-58
2022/05/24 05:39:43;;;;;;;19.55;8.30;;;;;;;;;;143726;573;47020;-57
2022/05/24 05:42:11;;;;;;;11.98;7.32;;;;;;;;;;143728;621;46011;-57
2022/05/24 05:44:39;;;;;;;16.08;8.05;;;;;;;;;;143729;730;45019;-58
2022/05/24 05:47:07;;;;;;;16.55;8.25;;;;;;;;;;143726;569;48010;-58
2022/05/24 05:49:34;;;;;;;12.65;7.32;;;;;;;;;;143726;553;47019;-58
2022/05/24 05:52:02;;;;;;;11.38;7.00;;;;;;;;;;143727;602;47026;-58
2022/05/24 05:54:28;;;;;;;13.50;7.55;;;;;;;;;;143730;578;45018;-58
2022/05/24 05:56:55;;;;;;;12.77;7.37;;;;;;;;;;143731;578;46011;-58
2022/05/24 05:59:23;;;;;;;15.30;7.43;;;;;;;;;;143726;582;47019;-58
2022/05/24 06:01:50;;;;;;;17.25;7.80;;;;;;;;;;143728;573;46010;-58
2022/05/24 06:04:17;;;;;;;15.45;6.40;;;;;;;;;;143731;569;45018;-59
2022/05/24 06:06:45;;;;;;;19.80;7.57;;;;;;;;;;143731;573;46010;-58
2022/05/24 06:09:13;;;;;;;11.05;7.93;;;;;;;;;;143728;570;47018;-58
2022/05/24 06:11:41;;;;;;;13.55;6.07;;;;;;;;;;143728;583;46010;-59
2022/05/24 06:14:09;;;;;;;10.38;6.15;;;;;;;;;;143731;596;45019;-59
2022/05/24 06:16:36;;;;;;;9.27;5.87;;;;;;;;;;143732;564;46010;-59
2022/05/24 06:19:04;;;;;;;11.75;5.18;;;;;;;;;;143725;577;47018;-59
2022/05/24 06:21:35;;;;;;;10.55;5.78;;;;;;;;;;143728;665;46010;-59
2022/05/24 06:24:06;;;;;;;13.60;5.45;;;;;;;;;;143727;566;46010;-59
2022/05/24 06:26:34;;;;;;;9.60;6.05;;;;;;;;;;143733;579;46022;-59
2022/05/24 06:29:04;;;;;;;11.43;6.03;;;;;;;;;;143728;626;47018;-59
2022/05/24 06:31:31;;;;;;;11.82;6.57;;;;;;;;;;143728;570;46027;-59
2022/05/24 06:33:58;;;;;;;8.98;5.97;;;;;;;;;;143731;576;45019;-59
2022/05/24 06:36:24;;;;;;;10.55;5.70;;;;;;;;;;143731;585;46023;-58
2022/05/24 06:38:51;;;;;;;24.12;6.12;;;;;;;;;;143726;587;47044;-59
2022/05/24 06:41:19;;;;;;;12.27;6.30;;;;;;;;;;143729;635;46027;-59
2022/05/24 06:43:46;;;;;;;17.25;6.10;;;;;;;;;;143728;587;46035;-59
2022/05/24 06:46:13;;;;;;;11.07;5.90;;;;;;;;;;143730;602;46022;-59
2022/05/24 06:48:42;;;;;;;10.63;5.95;;;;;;;;;;143726;599;47020;-59
2022/05/24 06:51:11;;;;;;;12.93;6.05;;;;;;;;;;143726;597;47012;-59
2022/05/24 06:53:40;;;;;;;10.82;5.57;;;;;;;;;;143730;601;46012;-59
2022/05/24 06:56:08;;;;;;;13.80;7.50;;;;;;;;;;143729;604;47010;-59
2022/05/24 06:58:36;;;;;;;9.95;5.87;;;;;;;;;;143727;600;47019;-60
2022/05/24 07:03:49;;;;;;;9.10;6.00;;;;;;;;;;143731;594;45020;-60
2022/05/24 07:06:17;;;;;;;11.80;6.65;;;;;;;;;;143732;576;46010;-60
2022/05/24 07:08:45;;;;;;;14.90;6.37;;;;;;;;;;143726;610;47020;-59
2022/05/24 07:11:13;;;;;;;11.88;5.53;;;;;;;;;;143727;640;47012;-60
2022/05/24 07:13:40;;;;;;;9.70;6.20;;;;;;;;;;143728;630;46018;-60
2022/05/24 07:16:09;;;;;;;7.30;5.07;;;;;;;;;;143732;772;46010;-60
2022/05/24 07:18:37;;;;;;;11.77;6.12;;;;;;;;;;143727;733;47020;-60
2022/05/24 07:21:05;;;;;;;9.05;5.43;;;;;;;;;;143727;702;47012;-59
2022/05/24 07:23:37;;;;;;;12.80;5.95;;;;;;;;;;143731;564;45018;-59
2022/05/24 07:26:19;;;;;;;7.55;5.15;;;;;;;;;;143731;701;46011;-60
2022/05/24 07:28:46;;;;;;;8.43;5.25;;;;;;;;;;143727;622;47021;-60
2022/05/24 07:31:13;;;;;;;13.02;4.53;;;;;;;;;;143728;645;46012;-59
2022/05/24 07:33:40;;;;;;;20.98;5.47;;;;;;;;;;143729;592;45019;-59
2022/05/24 07:36:08;;;;;;;12.63;5.95;;;;;;;;;;143733;675;46014;-59
2022/05/24 07:38:35;;;;;;;9.50;3.85;;;;;;;;;;143726;626;47018;-60
2022/05/24 07:46:32;;;;;;;7.50;4.90;;;;;;;;;;143731;579;46024;-59
2022/05/24 07:48:59;;;;;;;11.48;4.90;;;;;;;;;;143727;612;47038;-59
2022/05/24 07:51:27;;;;;;;11.60;4.45;;;;;;;;;;143727;565;46918;-59
2022/05/24 07:53:54;;;;;;;8.98;5.12;;;;;;;;;;143730;581;45018;-60
2022/05/24 07:56:20;;;;;;;8.45;5.32;;;;;;;;;;143731;580;46010;-60
2022/05/24 07:58:48;;;;;;;9.95;5.45;;;;;;;;;;143726;564;47032;-60
2022/05/24 08:01:16;;;;;;;9.10;4.87;;;;;;;;;;143728;661;46030;-59
2022/05/24 08:03:43;;;;;;;18.48;5.68;;;;;;;;;;143729;635;45019;-60
2022/05/24 08:06:10;;;;;;;11.80;5.75;;;;;;;;;;143731;580;46025;-60
2022/05/24 08:08:38;;;;;;;13.77;5.80;;;;;;;;;;143726;615;47018;-60
2022/05/24 08:11:05;;;;;;;10.32;4.82;;;;;;;;;;143728;587;46012;-60
2022/05/24 08:13:32;;;;;;;13.55;6.10;;;;;;;;;;143730;637;45019;-60
2022/05/24 08:15:59;;;;;;;13.77;6.20;;;;;;;;;;143729;634;47010;-60
2022/05/24 08:18:26;;;;;;;17.75;6.50;;;;;;;;;;143728;570;47018;-61
2022/05/24 08:20:54;;;;;;;9.90;5.87;;;;;;;;;;143727;592;47012;-61
2022/05/24 08:23:23;;;;;;;7.85;4.22;;;;;;;;;;143726;686;47012;-60
2022/05/24 08:25:51;;;;;;;14.32;5.03;;;;;;;;;;143731;564;46011;-60
2022/05/24 08:28:18;;;;;;;8.73;4.95;;;;;;;;;;143727;564;47018;-61
2022/05/24 08:30:46;;;;;;;11.63;5.47;;;;;;;;;;143729;584;47012;-61
2022/05/24 08:33:15;;;;;;;11.00;5.20;;;;;;;;;;143731;583;45019;-60
2022/05/24 08:35:43;;;;;;;7.37;4.50;;;;;;;;;;143731;567;46010;-60
2022/05/24 08:38:10;;;;;;;8.05;4.22;;;;;;;;;;143728;579;47018;-59
2022/05/24 08:40:42;;;;;;;8.45;4.55;;;;;;;;;;143726;570;47012;-59
2022/05/24 08:43:51;;;;;;;5.65;4.20;;;;;;;;;;143731;579;45019;-60
2022/05/24 08:49:15;;;;;;;7.40;4.37;;;;;;;;;;143729;569;45019;-60
2022/05/24 08:51:59;;;;;;;7.05;4.43;;;;;;;;;;143726;597;47012;-59
2022/05/24 08:54:41;;;;;;;5.82;3.80;;;;;;;;;;143730;647;45018;-60
2022/05/24 08:57:24;;;;;;;5.28;4.07;;;;;;;;;;143731;652;46010;-59
2022/05/24 08:59:59;;;;;;;6.70;4.35;;;;;;;;;;143727;573;47018;-59
2022/05/24 09:02:26;;;;;;;18.05;8.10;;;;;;;;;;143727;573;47012;-60
2022/05/24 09:04:53;;;;;;;10.10;5.00;;;;;;;;;;143730;643;45019;-60
2022/05/24 09:07:45;;;;;;;6.40;3.92;;;;;;;;;;143729;608;46022;-60
2022/05/24 09:10:22;;;;;;;6.03;4.50;;;;;;;;;;143727;594;47018;-60
2022/05/24 09:13:31;;;;;;;8.75;4.12;;;;;;;;;;143727;634;47012;-60
2022/05/24 09:16:10;;;;;;;7.32;4.18;;;;;;;;;;143730;636;45018;-60
2022/05/24 09:19:23;;;;;;;8.30;4.57;;;;;;;;;;143732;604;46022;-60
2022/05/24 09:21:53;;;;;;;7.53;4.18;;;;;;;;;;143725;625;47018;-60
2022/05/24 09:24:52;;;;;;;7.37;4.03;;;;;;;;;;143726;569;47012;-61
2022/05/24 09:27:26;;;;;;;8.30;5.12;;;;;;;;;;143730;595;45021;-61
2022/05/24 09:30:47;;;;;;;7.35;4.65;;;;;;;;;;143732;585;46010;-60
2022/05/24 09:33:31;;;;;;;8.82;5.03;;;;;;;;;;143727;576;47020;-60
2022/05/24 09:36:01;;;;;;;8.48;4.18;;;;;;;;;;143726;585;47012;-60
2022/05/24 09:38:37;;;;;;;11.40;4.50;;;;;;;;;;143730;577;45018;-60
2022/05/24 09:41:15;;;;;;;8.10;4.50;;;;;;;;;;143731;572;46022;-60
2022/05/24 09:43:42;;;;;;;6.65;4.22;;;;;;;;;;143727;576;47018;-60
2022/05/24 09:46:37;;;;;;;8.70;4.57;;;;;;;;;;143726;643;47012;-61
2022/05/24 09:49:23;;;;;;;9.98;4.57;;;;;;;;;;143730;578;45019;-61
2022/05/24 09:51:54;;;;;;;6.00;4.22;;;;;;;;;;143732;604;46022;-60
2022/05/24 09:54:25;;;;;;;12.32;4.70;;;;;;;;;;143727;650;47019;-60
2022/05/24 09:57:08;;;;;;;9.48;5.10;;;;;;;;;;143728;664;46013;-61
2022/05/24 09:59:38;;;;;;;11.68;5.45;;;;;;;;;;143730;564;45018;-60
2022/05/24 10:02:26;;;;;;;7.35;4.00;;;;;;;;;;143732;577;46022;-59
2022/05/24 10:04:54;;;;;;;7.53;4.28;;;;;;;;;;143727;641;47023;-60
2022/05/24 10:07:27;;;;;;;10.30;4.10;;;;;;;;;;143727;741;47012;-60
2022/05/24 10:10:16;;;;;;;9.57;4.47;;;;;;;;;;143729;757;45019;-60
2022/05/24 10:13:24;;;;;;;10.57;4.57;;;;;;;;;;143728;650;46023;-60
2022/05/24 10:16:11;;;;;;;7.75;4.30;;;;;;;;;;143727;575;47018;-59
2022/05/24 10:18:54;;;;;;;12.65;5.53;;;;;;;;;;143728;572;47012;-59
2022/05/24 10:21:40;;;;;;;8.40;5.30;;;;;;;;;;143730;564;45020;-59
2022/05/24 10:24:49;;;;;;;9.60;4.90;;;;;;;;;;143732;619;46012;-59
2022/05/24 10:27:42;;;;;;;6.80;4.43;;;;;;;;;;143727;646;47018;-60
2022/05/24 10:30:31;;;;;;;12.20;5.30;;;;;;;;;;143725;644;46022;-60
2022/05/24 10:40:09;;;;;;;9.27;4.57;;;;;;;;;;143727;570;47012;-59
2022/05/24 10:43:10;;;;;;;10.98;4.43;;;;;;;;;;143725;577;47012;-59
2022/05/24 10:46:01;;;;;;;8.45;4.75;;;;;;;;;;143725;641;45020;-59
2022/05/24 10:48:40;;;;;;;12.55;5.57;;;;;;;;;;143730;644;46023;-59
2022/05/24 10:51:39;;;;;;;11.98;5.72;;;;;;;;;;143728;622;46913;-59
2022/05/24 10:54:31;;;;;;;7.35;4.40;;;;;;;;;;143726;566;46013;-59
2022/05/24 10:57:26;;;;;;;10.48;5.10;;;;;;;;;;143729;564;45021;-59
2022/05/24 11:00:25;;;;;;;10.18;4.30;;;;;;;;;;143729;569;47010;-58
2022/05/24 11:03:33;;;;;;;7.45;4.87;;;;;;;;;;143725;588;47019;-58
2022/05/24 11:06:05;;;;;;;7.37;4.70;;;;;;;;;;143726;569;46012;-59
2022/05/24 11:08:52;;;;;;;6.87;4.60;;;;;;;;;;143727;623;45018;-59
2022/05/24 11:12:00;;;;;;;7.37;4.22;;;;;;;;;;143730;630;46010;-59
2022/05/24 11:15:15;;;;;;;7.22;4.40;;;;;;;;;;143753;657;46020;-59
2022/05/24 11:17:42;;;;;;;6.93;4.20;;;;;;;;;;143753;657;46012;-59
2022/05/24 11:20:11;;;;;;;6.03;4.35;;;;;;;;;;143756;594;44913;-58
2022/05/24 11:23:17;;;;;;;6.97;4.37;;;;;;;;;;143753;569;46014;-59
2022/05/24 11:25:51;;;;;;;10.40;4.57;;;;;;;;;;143755;612;46020;-59
2022/05/24 11:28:32;;;;;;;6.95;4.47;;;;;;;;;;143752;722;46010;-59
2022/05/24 11:31:30;;;;;;;8.50;4.80;;;;;;;;;;143757;592;44911;-59
2022/05/24 11:34:01;;;;;;;7.78;4.30;;;;;;;;;;143757;685;45023;-58
2022/05/24 11:36:38;;;;;;;7.07;4.40;;;;;;;;;;143754;665;46018;-59
2022/05/24 11:39:38;;;;;;;5.93;4.43;;;;;;;;;;143751;610;46010;-58
2022/05/24 11:42:47;;;;;;;7.15;4.47;;;;;;;;;;143753;768;45018;-58
2022/05/24 11:45:55;;;;;;;8.02;4.45;;;;;;;;;;143758;753;45022;-59
2022/05/24 11:48:23;;;;;;;6.57;4.43;;;;;;;;;;143755;650;46019;-58
2022/05/24 11:50:51;;;;;;;7.25;4.40;;;;;;;;;;143756;564;45029;-58
2022/05/24 11:53:41;;;;;;;8.25;4.43;;;;;;;;;;143754;661;45018;-59
2022/05/24 11:56:16;;;;;;;6.32;4.35;;;;;;;;;;143757;557;45025;-58
2022/05/24 11:58:48;;;;;;;6.85;4.93;;;;;;;;;;143754;639;46018;-59
2022/05/24 12:01:37;;;;;;;7.20;4.87;;;;;;;;;;143753;602;46010;-58
2022/05/24 12:07:54;;;;;;;9.63;4.12;;;;;;;;;;143759;574;45006;-59
2022/05/24 12:10:53;;;;;;;5.90;4.10;;;;;;;;;;143753;643;46020;-59
2022/05/24 12:14:05;;;;;;;6.18;4.18;;;;;;;;;;143737;566;46010;-58
2022/05/24 12:16:56;;;;;;;5.35;3.83;;;;;;;;;;143726;672;46018;-59
2022/05/24 12:19:58;;;;;;;11.55;5.18;;;;;;;;;;143726;604;47010;-59
2022/05/24 12:22:32;;;;;;;6.70;3.92;;;;;;;;;;143727;643;47010;-58
2022/05/24 12:25:06;;;;;;;7.53;4.10;;;;;;;;;;143725;681;47010;-59
2022/05/24 12:27:48;;;;;;;7.15;3.90;;;;;;;;;;143728;642;46014;-58
2022/05/24 12:30:39;;;;;;;5.97;4.10;;;;;;;;;;143728;637;46022;-58
2022/05/24 12:33:35;;;;;;;6.78;4.28;;;;;;;;;;143726;612;47019;-58
2022/05/24 12:36:26;;;;;;;8.10;4.50;;;;;;;;;;143723;616;47010;-58
2022/05/24 12:39:14;;;;;;;10.43;4.57;;;;;;;;;;143729;617;45019;-58
2022/05/24 12:41:44;;;;;;;7.30;4.75;;;;;;;;;;143728;749;46025;-58
2022/05/24 12:44:23;;;;;;;7.03;4.30;;;;;;;;;;143724;605;47018;-58
2022/05/24 12:47:14;;;;;;;16.50;4.50;;;;;;;;;;143722;579;47011;-59
2022/05/24 12:49:56;;;;;;;6.32;4.18;;;;;;;;;;143729;564;46014;-59
2022/05/24 12:52:29;;;;;;;7.80;4.35;;;;;;;;;;143729;700;46022;-58
2022/05/24 12:54:59;;;;;;;7.03;4.20;;;;;;;;;;143726;722;47019;-58
2022/05/24 12:57:36;;;;;;;7.12;4.32;;;;;;;;;;143725;591;47010;-58
2022/05/24 13:00:19;;;;;;;8.15;4.28;;;;;;;;;;143729;563;45018;-58
2022/05/24 13:02:48;;;;;;;6.18;4.10;;;;;;;;;;143730;586;46010;-58
2022/05/24 13:05:25;;;;;;;8.27;4.40;;;;;;;;;;143724;589;47018;-58
2022/05/24 13:08:02;;;;;;;8.77;4.57;;;;;;;;;;143724;622;47010;-58
2022/05/24 13:10:38;;;;;;;7.50;4.57;;;;;;;;;;143729;580;45021;-58
2022/05/24 13:13:18;;;;;;;5.43;4.28;;;;;;;;;;143728;695;46022;-58
2022/05/24 13:15:51;;;;;;;6.55;4.20;;;;;;;;;;143725;646;47020;-58
2022/05/24 13:18:24;;;;;;;6.30;4.30;;;;;;;;;;143725;640;47010;-58
2022/05/24 13:21:03;;;;;;;6.85;3.83;;;;;;;;;;143728;608;45018;-58
2022/05/24 13:23:36;;;;;;;8.35;4.18;;;;;;;;;;143729;605;46020;-58
2022/05/24 13:26:22;;;;;;;7.37;4.25;;;;;;;;;;143725;664;47018;-59
2022/05/24 13:28:52;;;;;;;6.78;4.50;;;;;;;;;;143724;721;47010;-58
2022/05/24 13:34:27;;;;;;;8.50;4.07;;;;;;;;;;143729;564;46022;-58
2022/05/24 13:37:07;;;;;;;6.50;4.25;;;;;;;;;;143725;585;47018;-58
2022/05/24 13:39:59;;;;;;;7.12;4.25;;;;;;;;;;143723;575;47010;-58
2022/05/24 13:42:28;;;;;;;5.68;4.50;;;;;;;;;;143727;682;45910;-58
2022/05/24 13:45:27;;;;;;;6.18;3.47;;;;;;;;;;143729;568;46022;-59
2022/05/24 13:48:00;;;;;;;5.95;3.85;;;;;;;;;;143726;669;47018;-59
2022/05/24 13:50:46;;;;;;;6.22;4.30;;;;;;;;;;143725;592;46010;-58
2022/05/24 13:53:41;;;;;;;7.43;4.47;;;;;;;;;;143729;630;45020;-58
2022/05/24 13:56:18;;;;;;;7.32;4.75;;;;;;;;;;143728;633;47010;-58
2022/05/24 13:58:49;;;;;;;9.35;5.82;;;;;;;;;;143724;611;47018;-58
2022/05/24 14:01:37;;;;;;;6.25;4.57;;;;;;;;;;143726;595;46011;-58
2022/05/24 14:04:22;;;;;;;10.20;5.93;;;;;;;;;;143727;598;46012;-58
2022/05/24 14:06:57;;;;;;;9.32;4.85;;;;;;;;;;143730;655;46022;-58
2022/05/24 14:09:26;;;;;;;13.25;6.55;;;;;;;;;;143725;576;47019;-58
2022/05/24 14:11:58;;;;;;;9.93;5.15;;;;;;;;;;143725;580;47010;-59
2022/05/24 14:14:28;;;;;;;15.80;5.70;;;;;;;;;;143728;610;45018;-58
2022/05/24 14:16:55;;;;;;;6.22;4.60;;;;;;;;;;143728;589;47010;-58
2022/05/24 14:19:22;;;;;;;7.05;4.85;;;;;;;;;;143724;572;47020;-58
2022/05/24 14:21:54;;;;;;;7.60;4.35;;;;;;;;;;143726;573;46010;-58
2022/05/24 14:24:23;;;;;;;6.20;4.57;;;;;;;;;;143728;602;45019;-59
2022/05/24 14:26:54;;;;;;;8.80;4.82;;;;;;;;;;143728;600;46022;-58
2022/05/24 14:29:23;;;;;;;7.40;4.82;;;;;;;;;;143726;608;47018;-58
2022/05/24 14:31:50;;;;;;;8.68;4.30;;;;;;;;;;143727;572;46023;-58
2022/05/24 14:34:19;;;;;;;9.05;5.28;;;;;;;;;;143728;612;45018;-58
2022/05/24 14:36:46;;;;;;;6.80;4.95;;;;;;;;;;143729;605;46022;-58
2022/05/24 14:39:14;;;;;;;8.50;5.50;;;;;;;;;;143725;578;47019;-59
2022/05/24 14:41:43;;;;;;;12.48;5.90;;;;;;;;;;143726;573;46010;-58
2022/05/24 14:44:16;;;;;;;8.50;5.10;;;;;;;;;;143728;601;45018;-58
2022/05/24 14:46:43;;;;;;;9.70;4.82;;;;;;;;;;143728;597;46022;-58
2022/05/24 14:49:10;;;;;;;6.72;4.50;;;;;;;;;;143725;583;47020;-58
2022/05/24 14:51:50;;;;;;;11.60;5.82;;;;;;;;;;143724;581;47010;-58
2022/05/24 14:54:18;;;;;;;10.70;4.97;;;;;;;;;;143726;658;46018;-58
2022/05/24 14:56:46;;;;;;;8.73;4.80;;;;;;;;;;143729;623;46022;-58
2022/05/24 14:59:14;;;;;;;8.85;5.37;;;;;;;;;;143728;591;46020;-58
2022/05/24 15:01:41;;;;;;;5.90;4.53;;;;;;;;;;143724;576;47010;-58
2022/05/24 15:04:09;;;;;;;16.33;5.97;;;;;;;;;;143727;616;45018;-58
2022/05/24 15:06:39;;;;;;;7.93;5.28;;;;;;;;;;143730;669;46022;-58
2022/05/24 15:17:35;;;;;;;9.02;5.00;;;;;;;;;;143757;692;45025;-58
2022/05/24 15:20:14;;;;;;;7.90;4.47;;;;;;;;;;143753;639;46020;-58
2022/05/24 15:22:58;;;;;;;10.23;4.62;;;;;;;;;;143753;572;46010;-58
2022/05/24 15:25:36;;;;;;;9.98;5.00;;;;;;;;;;143757;605;44911;-58
2022/05/24 15:28:11;;;;;;;6.47;5.00;;;;;;;;;;143758;617;45022;-59
2022/05/24 15:30:39;;;;;;;7.07;4.85;;;;;;;;;;143753;577;46020;-59
2022/05/24 15:33:06;;;;;;;8.65;4.75;;;;;;;;;;143755;575;46010;-58
2022/05/24 15:35:34;;;;;;;6.18;4.30;;;;;;;;;;143755;564;44911;-58
2022/05/24 15:38:01;;;;;;;8.13;5.07;;;;;;;;;;143758;658;45022;-58
2022/05/24 15:40:29;;;;;;;7.68;4.80;;;;;;;;;;143754;616;46018;-58
2022/05/24 15:42:57;;;;;;;6.93;4.68;;;;;;;;;;143751;573;46019;-58
2022/05/24 15:45:24;;;;;;;9.32;5.37;;;;;;;;;;143756;690;45014;-58
2022/05/24 15:47:51;;;;;;;9.02;4.90;;;;;;;;;;143758;581;45023;-58
2022/05/24 15:50:19;;;;;;;7.37;4.80;;;;;;;;;;143753;601;46020;-58
2022/05/24 15:52:48;;;;;;;7.35;4.78;;;;;;;;;;143753;567;46011;-58
2022/05/24 15:55:15;;;;;;;8.98;4.95;;;;;;;;;;143758;636;44912;-58
2022/05/24 15:57:42;;;;;;;9.07;5.22;;;;;;;;;;143758;593;45022;-58
2022/05/24 16:00:12;;;;;;;8.27;5.28;;;;;;;;;;143754;624;46019;-58
2022/05/24 16:02:40;;;;;;;7.97;4.80;;;;;;;;;;143752;570;46010;-58
2022/05/24 16:11:18;;;;;;;7.65;4.43;;;;;;;;;;143757;570;45022;-58